createdAt,value
2023-03-30T00:01:50.284Z,0.82
2023-03-30T00:04:18.773Z,0.63
2023-03-30T00:06:46.666Z,1.75
2023-03-30T00:09:14.475Z,0.88
2023-03-30T00:11:45.323Z,1.17
2023-03-30T00:14:13.074Z,0.95
2023-03-30T00:16:41.343Z,0.82
2023-03-30T00:19:09.296Z,1.20
2023-03-30T00:21:36.989Z,0.90
2023-03-30T00:24:04.952Z,1.40
2023-03-30T00:26:32.635Z,1.00
2023-03-30T00:29:01.823Z,1.50
2023-03-30T00:31:29.595Z,0.60
2023-03-30T00:33:57.557Z,0.38
2023-03-30T00:36:25.968Z,1.02
2023-03-30T00:38:54.166Z,0.73
2023-03-30T00:41:21.872Z,0.88
2023-03-30T00:44:03.184Z,0.52
2023-03-30T00:46:32.859Z,0.68
2023-03-30T00:49:06.106Z,1.73
2023-03-30T00:51:39.192Z,0.75
2023-03-30T00:54:13.711Z,0.80
2023-03-30T00:59:11.873Z,0.77
2023-03-30T01:01:41.320Z,0.80
2023-03-30T01:04:10.831Z,0.98
2023-03-30T01:06:43.245Z,1.13
2023-03-30T01:09:11.900Z,0.63
2023-03-30T01:11:39.812Z,1.52
2023-03-30T01:14:13.279Z,0.88
2023-03-30T01:16:54.662Z,0.47
2023-03-30T01:20:12.571Z,1.00
2023-03-30T01:23:14.338Z,0.63
2023-03-30T01:26:33.802Z,0.88
2023-03-30T01:29:16.186Z,0.88
2023-03-30T01:32:27.736Z,1.23
2023-03-30T01:35:34.686Z,1.17
2023-03-30T01:38:41.231Z,0.73
2023-03-30T01:41:22.526Z,1.35
2023-03-30T01:44:01.493Z,0.77
2023-03-30T01:46:34.882Z,1.02
2023-03-30T01:49:16.850Z,1.00
2023-03-30T01:51:56.828Z,1.02
2023-03-30T01:54:32.356Z,1.08
2023-03-30T01:57:11.323Z,0.50
2023-03-30T01:59:48.545Z,1.20
2023-03-30T02:02:22.071Z,1.20
2023-03-30T02:04:53.541Z,1.27
2023-03-30T02:07:28.635Z,1.48
2023-03-30T02:10:03.051Z,1.48
2023-03-30T02:12:34.267Z,1.30
2023-03-30T02:15:08.670Z,1.50
2023-03-30T02:17:38.120Z,1.45
2023-03-30T02:20:10.858Z,1.30
2023-03-30T02:22:40.652Z,1.10
2023-03-30T02:25:10.059Z,1.30
2023-03-30T02:27:41.918Z,1.50
2023-03-30T02:30:11.364Z,1.15
2023-03-30T02:32:45.221Z,0.90
2023-03-30T02:35:36.236Z,1.73
2023-03-30T02:38:39.993Z,0.93
2023-03-30T02:41:28.530Z,0.88
2023-03-30T02:44:13.438Z,0.90
2023-03-30T02:49:46.610Z,0.93
2023-03-30T02:52:33.533Z,1.23
2023-03-30T02:55:14.716Z,1.17
2023-03-30T02:57:56.680Z,1.00
2023-03-30T03:00:32.252Z,1.25
2023-03-30T03:03:10.067Z,0.82
2023-03-30T03:05:38.457Z,1.02
2023-03-30T03:08:07.019Z,1.25
2023-03-30T03:10:36.776Z,1.00
2023-03-30T03:13:04.779Z,0.50
2023-03-30T03:15:33.850Z,0.60
2023-03-30T03:18:01.649Z,0.75
2023-03-30T03:20:30.510Z,1.10
2023-03-30T03:22:58.313Z,1.35
2023-03-30T03:25:26.135Z,0.88
2023-03-30T03:27:53.883Z,0.50
2023-03-30T03:30:21.683Z,0.68
2023-03-30T03:32:52.247Z,0.55
2023-03-30T03:35:19.986Z,1.38
2023-03-30T03:37:47.725Z,1.45
2023-03-30T03:40:16.581Z,1.30
2023-03-30T03:42:44.303Z,0.93
2023-03-30T03:45:12.519Z,0.85
2023-03-30T03:47:40.438Z,0.68
2023-03-30T03:50:10.843Z,1.10
2023-03-30T03:52:38.586Z,0.70
2023-03-30T03:55:07.809Z,1.02
2023-03-30T03:57:36.665Z,1.20
2023-03-30T04:00:05.628Z,0.90
2023-03-30T04:02:33.819Z,2.00
2023-03-30T04:05:01.686Z,1.10
2023-03-30T04:07:30.910Z,0.90
2023-03-30T04:09:58.582Z,0.73
2023-03-30T04:12:26.315Z,0.68
2023-03-30T04:14:54.004Z,0.52
2023-03-30T04:17:23.600Z,0.77
2023-03-30T04:19:54.159Z,1.17
2023-03-30T04:22:24.138Z,0.93
2023-03-30T04:24:53.890Z,0.88
2023-03-30T04:27:21.582Z,0.68
2023-03-30T04:29:49.263Z,1.17
2023-03-30T04:32:20.762Z,0.75
2023-03-30T04:34:48.643Z,1.10
2023-03-30T04:37:29.983Z,0.93
2023-03-30T04:39:59.651Z,1.75
2023-03-30T04:42:33.961Z,1.05
2023-03-30T04:45:02.186Z,1.58
2023-03-30T04:47:31.639Z,1.67
2023-03-30T04:49:59.884Z,1.40
2023-03-30T04:52:28.450Z,1.55
2023-03-30T04:54:56.399Z,2.00
2023-03-30T04:57:26.044Z,2.30
2023-03-30T04:59:54.665Z,1.27
2023-03-30T05:02:22.639Z,1.80
2023-03-30T05:04:50.502Z,1.90
2023-03-30T05:07:18.576Z,1.35
2023-03-30T05:09:46.278Z,1.60
2023-03-30T05:12:13.994Z,2.00
2023-03-30T05:14:43.862Z,1.65
2023-03-30T05:17:11.632Z,1.60
2023-03-30T05:19:39.775Z,1.85
2023-03-30T05:22:11.078Z,1.85
2023-03-30T05:24:39.095Z,2.40
2023-03-30T05:27:06.863Z,1.98
2023-03-30T05:29:34.708Z,1.20
2023-03-30T05:32:03.811Z,1.75
2023-03-30T05:34:31.550Z,1.60
2023-03-30T05:36:59.268Z,1.67
2023-03-30T05:39:27.115Z,1.67
2023-03-30T05:41:54.796Z,1.25
2023-03-30T05:44:23.333Z,1.10
2023-03-30T05:46:51.201Z,1.65
2023-03-30T05:49:20.684Z,1.05
2023-03-30T05:51:48.438Z,1.35
2023-03-30T05:54:16.510Z,1.42
2023-03-30T05:56:44.229Z,1.67
2023-03-30T05:59:12.762Z,1.38
2023-03-30T06:01:41.198Z,1.80
2023-03-30T06:04:09.004Z,1.67
2023-03-30T06:06:38.323Z,1.25
2023-03-30T06:09:06.649Z,1.55
2023-03-30T06:11:34.468Z,1.88
2023-03-30T06:14:02.354Z,1.80
2023-03-30T06:16:30.176Z,1.60
2023-03-30T06:18:58.190Z,1.50
2023-03-30T06:21:26.114Z,1.95
2023-03-30T06:23:55.175Z,1.88
2023-03-30T06:26:23.206Z,1.13
2023-03-30T06:28:50.929Z,1.83
2023-03-30T06:31:18.720Z,1.88
2023-03-30T06:33:46.651Z,1.17
2023-03-30T06:36:15.577Z,1.20
2023-03-30T06:38:44.590Z,1.38
2023-03-30T06:41:14.406Z,1.23
2023-03-30T06:43:42.800Z,0.65
2023-03-30T06:46:11.254Z,1.67
2023-03-30T06:48:39.149Z,2.03
2023-03-30T06:51:08.652Z,1.42
2023-03-30T06:53:36.550Z,2.15
2023-03-30T06:56:04.313Z,1.85
2023-03-30T06:58:34.237Z,1.88
2023-03-30T07:01:11.191Z,1.70
2023-03-30T07:03:39.070Z,2.60
2023-03-30T07:06:08.680Z,1.88
2023-03-30T07:08:36.916Z,1.83
2023-03-30T07:11:07.447Z,1.50
2023-03-30T07:13:36.564Z,1.52
2023-03-30T07:16:04.591Z,2.30
2023-03-30T07:18:32.389Z,1.40
2023-03-30T07:21:00.622Z,2.03
2023-03-30T07:23:28.500Z,1.35
2023-03-30T07:25:56.392Z,1.30
2023-03-30T07:28:24.876Z,1.23
2023-03-30T07:30:53.986Z,1.23
2023-03-30T07:33:21.917Z,1.15
2023-03-30T07:35:50.399Z,0.98
2023-03-30T07:38:19.038Z,1.25
2023-03-30T07:40:46.723Z,1.45
2023-03-30T07:43:14.461Z,1.23
2023-03-30T07:45:42.213Z,1.98
2023-03-30T07:48:11.316Z,1.33
2023-03-30T07:50:39.239Z,1.73
2023-03-30T07:53:07.057Z,1.60
2023-03-30T07:55:34.934Z,1.20
2023-03-30T07:58:02.619Z,1.20
2023-03-30T08:00:30.778Z,2.20
2023-03-30T08:02:58.608Z,1.75
2023-03-30T08:05:27.707Z,1.38
2023-03-30T08:07:55.490Z,0.80
2023-03-30T08:10:23.225Z,1.63
2023-03-30T08:12:51.103Z,1.17
2023-03-30T08:15:19.725Z,1.77
2023-03-30T08:17:47.462Z,1.20
2023-03-30T08:20:16.173Z,2.00
2023-03-30T08:22:45.553Z,1.33
2023-03-30T08:25:13.340Z,1.65
2023-03-30T08:27:41.098Z,1.77
2023-03-30T08:30:13.028Z,1.77
2023-03-30T08:32:40.766Z,1.02
2023-03-30T08:35:09.893Z,1.77
2023-03-30T08:37:37.616Z,1.60
2023-03-30T08:40:10.210Z,1.77
2023-03-30T08:43:02.031Z,1.40
2023-03-30T08:45:41.013Z,1.27
2023-03-30T08:48:19.496Z,1.73
2023-03-30T08:50:57.739Z,1.58
2023-03-30T08:53:27.242Z,1.48
2023-03-30T08:56:02.267Z,2.00
2023-03-30T08:58:45.058Z,1.27
2023-03-30T09:01:24.792Z,0.93
2023-03-30T09:04:18.034Z,0.88
2023-03-30T09:06:52.529Z,0.75
2023-03-30T09:12:03.405Z,1.10
2023-03-30T09:14:39.642Z,1.25
2023-03-30T09:17:14.800Z,1.10
2023-03-30T09:19:55.590Z,0.98
2023-03-30T09:22:32.819Z,0.90
2023-03-30T09:25:01.367Z,1.55
2023-03-30T09:27:43.204Z,1.42
2023-03-30T09:30:20.022Z,1.05
2023-03-30T09:33:00.843Z,1.30
2023-03-30T09:35:41.534Z,1.17
2023-03-30T09:38:13.014Z,1.13
2023-03-30T09:41:07.132Z,1.67
2023-03-30T09:43:44.655Z,1.80
2023-03-30T09:46:13.992Z,1.10
2023-03-30T09:48:44.512Z,0.90
2023-03-30T09:51:20.547Z,1.25
2023-03-30T09:53:51.827Z,1.85
2023-03-30T09:56:29.994Z,1.10
2023-03-30T09:58:59.148Z,0.85
2023-03-30T10:01:38.878Z,1.45
2023-03-30T10:04:11.028Z,1.25
2023-03-30T10:06:50.676Z,1.60
2023-03-30T10:09:24.554Z,1.27
2023-03-30T10:11:55.746Z,1.05
2023-03-30T10:14:33.743Z,0.82
2023-03-30T10:17:04.262Z,1.05
2023-03-30T10:19:38.045Z,1.17
2023-03-30T10:22:18.752Z,0.63
2023-03-30T10:24:53.130Z,1.10
2023-03-30T10:27:27.793Z,0.93
2023-03-30T10:29:56.843Z,0.90
2023-03-30T10:32:32.257Z,0.98
2023-03-30T10:35:05.269Z,1.38
2023-03-30T10:37:39.351Z,1.25
2023-03-30T10:40:18.551Z,0.68
2023-03-30T10:42:48.990Z,1.48
2023-03-30T10:45:23.070Z,1.02
2023-03-30T10:48:10.947Z,1.13
2023-03-30T10:50:52.582Z,1.35
2023-03-30T10:53:38.273Z,1.00
2023-03-30T10:56:21.250Z,0.95
2023-03-30T10:59:12.123Z,0.65
2023-03-30T11:02:04.601Z,0.60
2023-03-30T11:04:39.661Z,0.80
2023-03-30T11:07:23.715Z,0.80
2023-03-30T11:09:58.742Z,1.63
2023-03-30T11:12:36.264Z,1.13
2023-03-30T11:15:14.170Z,1.13
2023-03-30T11:17:58.439Z,1.38
2023-03-30T11:20:29.958Z,0.80
2023-03-30T11:23:09.299Z,0.95
2023-03-30T11:25:56.264Z,1.35
2023-03-30T11:28:44.062Z,1.17
2023-03-30T11:31:29.149Z,1.23
2023-03-30T11:34:09.690Z,1.10
2023-03-30T11:36:49.443Z,1.55
2023-03-30T11:39:32.556Z,0.70
2023-03-30T11:42:14.587Z,0.95
2023-03-30T11:44:42.600Z,1.20
2023-03-30T11:47:49.057Z,1.15
2023-03-30T11:50:32.687Z,0.70
2023-03-30T11:53:22.288Z,1.20
2023-03-30T11:56:06.788Z,1.00
2023-03-30T11:58:42.794Z,1.15
2023-03-30T12:01:42.763Z,0.98
2023-03-30T12:04:13.610Z,1.30
2023-03-30T12:06:51.696Z,0.85
2023-03-30T12:09:26.684Z,0.88
2023-03-30T12:12:05.823Z,1.20
2023-03-30T12:15:01.456Z,1.20
2023-03-30T12:17:45.473Z,1.58
2023-03-30T12:20:29.925Z,1.47
2023-03-30T12:23:17.514Z,1.02
2023-03-30T12:26:07.044Z,0.80
2023-03-30T12:29:05.074Z,1.67
2023-03-30T12:32:05.683Z,1.05
2023-03-30T12:34:36.509Z,1.02
2023-03-30T12:37:09.980Z,1.10
2023-03-30T12:39:48.748Z,0.82
2023-03-30T12:42:27.381Z,1.20
2023-03-30T12:45:31.915Z,1.27
2023-03-30T12:48:26.274Z,1.00
2023-03-30T12:51:13.086Z,1.13
2023-03-30T12:54:24.335Z,1.02
2023-03-30T12:57:08.494Z,1.30
2023-03-30T13:00:08.418Z,1.20
2023-03-30T13:03:12.777Z,1.20
2023-03-30T13:05:43.806Z,0.93
2023-03-30T13:08:26.686Z,1.48
2023-03-30T13:11:14.490Z,1.15
2023-03-30T13:13:54.368Z,1.48
2023-03-30T13:17:11.760Z,1.63
2023-03-30T13:20:12.680Z,1.10
2023-03-30T13:23:06.891Z,1.27
2023-03-30T13:25:49.627Z,1.45
2023-03-30T13:28:55.835Z,1.17
2023-03-30T13:31:45.687Z,1.33
2023-03-30T13:34:30.058Z,1.67
2023-03-30T13:37:13.393Z,1.60
2023-03-30T13:39:54.543Z,1.30
2023-03-30T13:42:42.981Z,2.00
2023-03-30T13:45:31.836Z,1.40
2023-03-30T13:48:16.906Z,1.50
2023-03-30T13:50:58.521Z,1.80
2023-03-30T13:53:29.728Z,1.77
2023-03-30T13:55:57.961Z,1.33
2023-03-30T13:58:33.254Z,1.73
2023-03-30T14:01:07.383Z,1.30
2023-03-30T14:03:41.598Z,2.60
2023-03-30T14:06:20.848Z,2.20
2023-03-30T14:08:52.256Z,1.80
2023-03-30T14:11:23.742Z,1.45
2023-03-30T14:13:54.535Z,1.58
2023-03-30T14:16:26.596Z,1.30
2023-03-30T14:19:08.165Z,1.75
2023-03-30T14:21:38.596Z,1.58
2023-03-30T14:24:10.315Z,1.48
2023-03-30T14:26:42.111Z,1.45
2023-03-30T14:29:30.464Z,1.50
2023-03-30T14:32:08.915Z,2.10
2023-03-30T14:34:37.777Z,1.92
2023-03-30T14:37:09.203Z,2.08
2023-03-30T14:39:44.461Z,2.05
2023-03-30T14:42:18.680Z,1.95
2023-03-30T14:44:50.166Z,1.50
2023-03-30T14:47:23.480Z,1.60
2023-03-30T14:49:55.989Z,1.38
2023-03-30T14:52:29.935Z,1.20
2023-03-30T14:55:07.413Z,1.50
2023-03-30T14:57:41.281Z,1.45
2023-03-30T15:00:18.033Z,1.55
2023-03-30T15:02:51.708Z,1.63
2023-03-30T15:05:22.025Z,1.80
2023-03-30T15:07:52.441Z,1.75
2023-03-30T15:10:27.029Z,1.90
2023-03-30T15:12:58.537Z,2.35
2023-03-30T15:15:32.410Z,1.77
2023-03-30T15:18:05.780Z,2.10
2023-03-30T15:20:33.638Z,2.35
2023-03-30T15:23:02.018Z,2.28
2023-03-30T15:25:35.323Z,2.00
2023-03-30T15:28:06.932Z,1.80
2023-03-30T15:30:39.112Z,2.42
2023-03-30T15:33:22.199Z,2.10
2023-03-30T15:35:53.748Z,2.63
2023-03-30T15:38:34.072Z,2.13
2023-03-30T15:41:02.380Z,2.17
2023-03-30T15:43:33.257Z,2.15
2023-03-30T15:46:06.146Z,1.77
2023-03-30T15:48:43.383Z,2.63
2023-03-30T15:51:17.393Z,1.95
2023-03-30T15:53:55.101Z,2.20
2023-03-30T15:56:30.510Z,2.08
2023-03-30T15:58:59.494Z,2.22
2023-03-30T16:01:42.522Z,2.40
2023-03-30T16:04:15.642Z,1.95
2023-03-30T16:06:46.666Z,2.00
2023-03-30T16:09:15.070Z,2.10
2023-03-30T16:11:44.090Z,1.95
2023-03-30T16:14:15.267Z,2.10
2023-03-30T16:16:43.164Z,2.40
2023-03-30T16:19:14.369Z,2.42
2023-03-30T16:21:45.244Z,2.13
2023-03-30T16:24:13.660Z,2.08
2023-03-30T16:26:41.377Z,2.22
2023-03-30T16:29:21.265Z,2.20
2023-03-30T16:31:49.483Z,2.35
2023-03-30T16:34:19.937Z,2.33
2023-03-30T16:36:53.450Z,1.75
2023-03-30T16:39:26.652Z,2.20
2023-03-30T16:42:02.056Z,2.33
2023-03-30T16:44:59.502Z,2.08
2023-03-30T16:47:34.117Z,2.22
2023-03-30T16:50:29.609Z,1.85
2023-03-30T16:53:05.069Z,2.20
2023-03-30T16:55:40.137Z,2.22
2023-03-30T16:58:19.782Z,2.50
2023-03-30T17:00:54.098Z,2.40
2023-03-30T17:03:26.023Z,1.75
2023-03-30T17:06:05.208Z,2.28
2023-03-30T17:08:44.547Z,2.08
2023-03-30T17:11:16.739Z,2.38
2023-03-30T17:13:55.978Z,1.67
2023-03-30T17:16:29.215Z,2.22
2023-03-30T17:18:56.989Z,2.22
2023-03-30T17:21:26.058Z,1.98
2023-03-30T17:23:57.807Z,2.10
2023-03-30T17:26:26.085Z,2.00
2023-03-30T17:29:11.702Z,2.10
2023-03-30T17:31:39.561Z,2.50
2023-03-30T17:34:07.658Z,2.08
2023-03-30T17:36:36.746Z,2.38
2023-03-30T17:39:05.262Z,2.00
2023-03-30T17:41:34.214Z,2.42
2023-03-30T17:44:01.996Z,2.20
2023-03-30T17:46:29.812Z,2.05
2023-03-30T17:48:58.938Z,2.30
2023-03-30T17:51:26.721Z,2.22
2023-03-30T17:53:55.761Z,3.40
2023-03-30T17:56:23.628Z,2.60
2023-03-30T17:58:53.014Z,2.25
2023-03-30T18:01:27.141Z,2.15
2023-03-30T18:04:11.043Z,2.22
2023-03-30T18:06:49.904Z,2.40
2023-03-30T18:09:26.712Z,2.47
2023-03-30T18:11:58.275Z,2.40
2023-03-30T18:14:35.025Z,1.85
2023-03-30T18:17:15.027Z,2.22
2023-03-30T18:19:48.997Z,2.20
2023-03-30T18:22:28.361Z,2.40
2023-03-30T18:24:57.531Z,2.80
2023-03-30T18:27:25.294Z,2.33
2023-03-30T18:29:59.276Z,2.67
2023-03-30T18:32:37.101Z,2.45
2023-03-30T18:35:12.163Z,2.38
2023-03-30T18:37:55.307Z,2.10
2023-03-30T18:40:38.871Z,2.20
2023-03-30T18:43:10.237Z,2.40
2023-03-30T18:45:52.353Z,2.40
2023-03-30T18:48:33.102Z,2.53
2023-03-30T18:51:07.555Z,3.00
2023-03-30T18:53:49.764Z,2.58
2023-03-30T18:56:39.104Z,2.20
2023-03-30T18:59:40.443Z,2.83
2023-03-30T19:02:26.262Z,2.13
2023-03-30T19:05:07.203Z,2.28
2023-03-30T19:07:35.291Z,2.78
2023-03-30T19:10:03.154Z,3.97
2023-03-30T19:12:32.654Z,3.53
2023-03-30T19:15:00.358Z,2.97
2023-03-30T19:17:28.153Z,2.63
2023-03-30T19:19:55.901Z,3.35
2023-03-30T19:22:23.660Z,3.45
2023-03-30T19:24:51.360Z,2.80
2023-03-30T19:27:19.083Z,2.67
2023-03-30T19:29:48.178Z,2.72
2023-03-30T19:32:16.557Z,2.55
2023-03-30T19:34:44.288Z,2.53
2023-03-30T19:37:14.317Z,2.75
2023-03-30T19:39:42.197Z,2.50
2023-03-30T19:42:10.436Z,2.70
2023-03-30T19:44:38.920Z,2.20
2023-03-30T19:47:08.187Z,2.30
2023-03-30T19:49:36.273Z,2.50
2023-03-30T19:52:04.008Z,2.17
2023-03-30T19:54:31.874Z,2.28
2023-03-30T19:56:59.556Z,2.40
2023-03-30T19:59:28.637Z,2.40
2023-03-30T20:01:56.659Z,2.30
2023-03-30T20:04:25.740Z,2.67
2023-03-30T20:06:53.759Z,2.13
2023-03-30T20:09:22.087Z,2.50
2023-03-30T20:11:49.818Z,2.38
2023-03-30T20:14:17.617Z,2.60
2023-03-30T20:16:45.310Z,2.50
2023-03-30T20:19:28.640Z,2.65
2023-03-30T20:22:00.346Z,2.88
2023-03-30T20:24:28.023Z,2.78
2023-03-30T20:26:55.753Z,2.38
2023-03-30T20:29:23.482Z,2.08
2023-03-30T20:31:51.391Z,2.03
2023-03-30T20:34:19.706Z,3.30
2023-03-30T20:36:49.873Z,2.25
2023-03-30T20:39:22.093Z,2.10
2023-03-30T20:41:53.834Z,2.63
2023-03-30T20:44:30.634Z,2.13
2023-03-30T20:47:01.666Z,2.53
2023-03-30T20:49:29.574Z,2.50
2023-03-30T20:52:00.663Z,2.15
2023-03-30T20:54:31.395Z,2.10
2023-03-30T20:56:59.130Z,1.83
2023-03-30T20:59:26.998Z,2.25
2023-03-30T21:01:58.889Z,2.20
2023-03-30T21:04:28.595Z,2.67
2023-03-30T21:06:56.331Z,2.15
2023-03-30T21:09:24.103Z,1.65
2023-03-30T21:11:53.834Z,2.00
2023-03-30T21:14:23.633Z,2.22
2023-03-30T21:16:51.464Z,2.15
2023-03-30T21:19:19.459Z,2.05
2023-03-30T21:21:47.200Z,2.10
2023-03-30T21:24:15.971Z,1.88
2023-03-30T21:26:43.694Z,2.35
2023-03-30T21:29:12.893Z,2.15
2023-03-30T21:31:40.648Z,2.13
2023-03-30T21:34:10.103Z,2.00
2023-03-30T21:36:38.011Z,1.90
2023-03-30T21:39:05.830Z,1.88
2023-03-30T21:41:33.665Z,1.83
2023-03-30T21:44:01.782Z,1.58
2023-03-30T21:46:31.254Z,1.67
2023-03-30T21:48:59.344Z,2.33
2023-03-30T21:51:29.754Z,1.70
2023-03-30T21:53:58.501Z,1.73
2023-03-30T21:56:29.687Z,2.10
2023-03-30T21:58:58.070Z,2.28
2023-03-30T22:01:26.027Z,1.77
2023-03-30T22:03:56.394Z,2.22
2023-03-30T22:06:25.146Z,1.83
2023-03-30T22:08:52.940Z,1.98
2023-03-30T22:11:25.580Z,2.13
2023-03-30T22:13:55.014Z,2.20
2023-03-30T22:16:25.961Z,1.85
2023-03-30T22:18:55.583Z,1.58
2023-03-30T22:21:25.863Z,2.30
2023-03-30T22:23:54.473Z,2.20
2023-03-30T22:26:22.975Z,2.15
2023-03-30T22:28:50.699Z,1.77
2023-03-30T22:31:18.438Z,2.20
2023-03-30T22:33:47.838Z,1.85
2023-03-30T22:36:20.355Z,1.58
2023-03-30T22:38:49.813Z,2.15
2023-03-30T22:41:23.554Z,1.95
2023-03-30T22:43:51.730Z,2.22
2023-03-30T22:46:19.716Z,1.80
2023-03-30T22:48:49.567Z,2.45
2023-03-30T22:51:26.222Z,1.92
2023-03-30T22:53:57.608Z,1.90
2023-03-30T22:56:25.717Z,1.70
2023-03-30T22:58:53.602Z,1.95
2023-03-30T23:01:21.454Z,2.50
2023-03-30T23:03:49.398Z,1.45
2023-03-30T23:06:19.424Z,2.33
2023-03-30T23:08:48.112Z,1.60
2023-03-30T23:11:15.995Z,1.73
2023-03-30T23:13:43.823Z,1.90
2023-03-30T23:16:11.563Z,1.60
2023-03-30T23:18:39.948Z,1.58
2023-03-30T23:21:11.113Z,1.90
2023-03-30T23:23:41.451Z,2.55
2023-03-30T23:26:12.024Z,1.90
2023-03-30T23:28:42.320Z,2.00
2023-03-30T23:31:13.721Z,2.30
2023-03-30T23:33:42.132Z,1.73
2023-03-30T23:36:13.555Z,1.85
2023-03-30T23:38:43.097Z,1.77
2023-03-30T23:41:15.513Z,1.80
2023-03-30T23:43:43.246Z,1.80
2023-03-30T23:46:11.300Z,2.10
2023-03-30T23:48:39.319Z,1.33
2023-03-30T23:51:07.802Z,1.40
2023-03-30T23:53:39.739Z,1.88
2023-03-30T23:56:12.682Z,1.70
2023-03-30T23:58:41.211Z,2.17
